createdAt,value
2019-04-03T00:00:26.420Z,10.63
2019-04-03T00:01:26.397Z,10.64
2019-04-03T00:02:26.391Z,10.6
2019-04-03T00:03:26.350Z,10.69
2019-04-03T00:04:26.427Z,10.64
2019-04-03T00:05:26.305Z,10.79
2019-04-03T00:06:26.279Z,10.68
2019-04-03T00:07:26.250Z,10.69
2019-04-03T00:08:26.226Z,10.68
2019-04-03T00:09:26.220Z,10.72
2019-04-03T00:10:26.233Z,10.69
2019-04-03T00:11:26.164Z,10.75
2019-04-03T00:12:26.251Z,10.68
2019-04-03T00:13:26.159Z,10.69
2019-04-03T00:14:26.087Z,10.72
2019-04-03T00:15:26.129Z,10.75
2019-04-03T00:16:26.039Z,10.78
2019-04-03T00:17:26.013Z,10.78
2019-04-03T00:18:26.127Z,10.71
2019-04-03T00:19:25.970Z,10.81
2019-04-03T00:20:25.940Z,10.57
2019-04-03T00:21:25.916Z,10.61
2019-04-03T00:22:26.927Z,10.67
2019-04-03T00:23:27.516Z,10.72
2019-04-03T00:24:27.397Z,10.61
2019-04-03T00:25:27.335Z,10.72
2019-04-03T00:26:30.169Z,10.6
2019-04-03T00:27:27.294Z,10.64
2019-04-03T00:28:27.474Z,10.56
2019-04-03T00:29:27.551Z,10.57
2019-04-03T00:30:27.441Z,10.61
2019-04-03T00:31:27.806Z,10.56
2019-04-03T00:32:28.029Z,10.54
2019-04-03T00:33:27.976Z,10.48
2019-04-03T00:34:28.057Z,10.51
2019-04-03T00:35:28.064Z,10.46
2019-04-03T00:36:27.790Z,10.44
2019-04-03T00:37:27.723Z,10.41
2019-04-03T00:38:26.963Z,10.4
2019-04-03T00:39:27.206Z,10.33
2019-04-03T00:40:27.278Z,10.37
2019-04-03T00:41:27.191Z,10.34
2019-04-03T00:42:27.193Z,10.23
2019-04-03T00:43:27.412Z,10.3
2019-04-03T00:44:27.041Z,10.3
2019-04-03T00:45:27.026Z,10.2
2019-04-03T00:46:27.433Z,10.17
2019-04-03T00:47:27.882Z,10.19
2019-04-03T00:48:27.487Z,10.12
2019-04-03T00:49:28.292Z,10.15
2019-04-03T00:50:26.870Z,10.07
2019-04-03T00:51:26.945Z,9.99
2019-04-03T00:52:25.852Z,10.01
2019-04-03T00:53:25.894Z,9.94
2019-04-03T00:54:26.341Z,9.91
2019-04-03T00:55:26.587Z,9.95
2019-04-03T00:56:26.648Z,9.92
2019-04-03T00:57:26.267Z,9.86
2019-04-03T00:58:25.760Z,9.87
2019-04-03T00:59:26.237Z,9.86
2019-04-03T01:00:26.380Z,9.83
2019-04-03T01:01:26.511Z,9.91
2019-04-03T01:02:24.904Z,9.79
2019-04-03T01:03:24.965Z,9.87
2019-04-03T01:04:24.863Z,9.86
2019-04-03T01:05:24.932Z,9.87
2019-04-03T01:06:24.932Z,9.87
2019-04-03T01:07:24.778Z,9.89
2019-04-03T01:08:24.756Z,9.8
2019-04-03T01:09:24.733Z,9.86
2019-04-03T01:10:24.979Z,9.82
2019-04-03T01:11:24.809Z,9.84
2019-04-03T01:12:24.663Z,9.8
2019-04-03T01:13:24.745Z,9.77
2019-04-03T01:14:24.607Z,9.76
2019-04-03T01:15:24.759Z,9.8
2019-04-03T01:16:24.595Z,9.84
2019-04-03T01:17:24.626Z,9.8
2019-04-03T01:18:24.598Z,9.84
2019-04-03T01:19:24.248Z,9.79
2019-04-03T01:20:24.580Z,9.82
2019-04-03T01:21:24.547Z,9.82
2019-04-03T01:22:24.408Z,9.77
2019-04-03T01:23:24.378Z,9.79
2019-04-03T01:24:24.577Z,9.76
2019-04-03T01:25:24.331Z,9.79
2019-04-03T01:26:24.305Z,9.77
2019-04-03T01:27:24.414Z,9.8
2019-04-03T01:28:24.255Z,9.84
2019-04-03T01:29:24.234Z,9.79
2019-04-03T01:30:24.220Z,9.82
2019-04-03T01:31:24.188Z,9.79
2019-04-03T01:32:24.157Z,9.77
2019-04-03T01:33:24.129Z,9.77
2019-04-03T01:34:24.271Z,9.76
2019-04-03T01:35:24.079Z,9.79
2019-04-03T01:36:24.056Z,9.74
2019-04-03T01:37:24.198Z,9.73
2019-04-03T01:38:24.612Z,9.73
2019-04-03T01:39:25.977Z,9.77
2019-04-03T01:40:25.666Z,9.73
2019-04-03T01:41:26.197Z,9.76
2019-04-03T01:42:26.459Z,9.74
2019-04-03T01:43:25.614Z,9.73
2019-04-03T01:44:26.708Z,9.68
2019-04-03T01:45:25.676Z,9.77
2019-04-03T01:46:23.808Z,9.74
2019-04-03T01:47:23.821Z,9.69
2019-04-03T01:48:23.872Z,9.73
2019-04-03T01:49:23.752Z,9.69
2019-04-03T01:50:23.760Z,9.68
2019-04-03T01:51:23.691Z,9.69
2019-04-03T01:52:23.422Z,9.66
2019-04-03T01:53:23.626Z,9.56
2019-04-03T01:54:23.748Z,9.66
2019-04-03T01:55:23.584Z,9.55
2019-04-03T01:56:23.657Z,9.56
2019-04-03T01:57:23.529Z,9.61
2019-04-03T01:58:23.537Z,9.65
2019-04-03T01:59:23.507Z,9.66
2019-04-03T02:00:23.562Z,9.66
2019-04-03T02:01:23.478Z,9.65
2019-04-03T02:02:23.419Z,9.59
2019-04-03T02:03:23.384Z,9.66
2019-04-03T02:04:23.424Z,9.58
2019-04-03T02:05:23.336Z,9.58
2019-04-03T02:06:23.540Z,9.58
2019-04-03T02:07:23.281Z,9.59
2019-04-03T02:08:23.253Z,9.56
2019-04-03T02:09:23.405Z,9.58
2019-04-03T02:10:23.309Z,9.58
2019-04-03T02:11:24.285Z,9.46
2019-04-03T02:12:24.668Z,9.44
2019-04-03T02:13:26.588Z,9.48
2019-04-03T02:14:26.035Z,9.51
2019-04-03T02:15:26.086Z,9.5
2019-04-03T02:16:25.152Z,9.37
2019-04-03T02:17:25.728Z,9.48
2019-04-03T02:18:23.546Z,9.48
2019-04-03T02:19:25.434Z,9.4
2019-04-03T02:20:22.968Z,9.41
2019-04-03T02:21:23.194Z,9.44
2019-04-03T02:22:22.902Z,9.48
2019-04-03T02:23:23.069Z,9.34
2019-04-03T02:24:22.847Z,9.4
2019-04-03T02:25:22.827Z,9.39
2019-04-03T02:26:22.926Z,9.36
2019-04-03T02:27:22.785Z,9.37
2019-04-03T02:28:22.756Z,9.37
2019-04-03T02:29:22.768Z,9.34
2019-04-03T02:30:23.003Z,9.25
2019-04-03T02:31:24.717Z,9.19
2019-04-03T02:32:26.015Z,9.23
2019-04-03T02:33:22.625Z,9.31
2019-04-03T02:34:22.605Z,9.34
2019-04-03T02:35:22.950Z,9.19
2019-04-03T02:36:22.882Z,9.28
2019-04-03T02:37:22.933Z,9.22
2019-04-03T02:38:26.326Z,9.23
2019-04-03T02:39:25.513Z,9.23
2019-04-03T02:40:22.475Z,9.25
2019-04-03T02:41:22.487Z,9.26
2019-04-03T02:42:22.659Z,9.21
2019-04-03T02:43:22.420Z,9.21
2019-04-03T02:44:24.274Z,9.23
2019-04-03T02:45:25.506Z,9.22
2019-04-03T02:46:22.807Z,9.11
2019-04-03T02:47:22.312Z,9.14
2019-04-03T02:48:22.254Z,9.19
2019-04-03T02:49:22.238Z,9.19
2019-04-03T02:50:22.355Z,9.18
2019-04-03T02:51:24.970Z,9.18
2019-04-03T02:52:25.038Z,9.1
2019-04-03T02:53:22.122Z,9.21
2019-04-03T02:54:22.147Z,9.16
2019-04-03T02:55:22.377Z,9.16
2019-04-03T02:56:22.158Z,9.19
2019-04-03T02:57:23.213Z,9.13
2019-04-03T02:58:27.006Z,9.11
2019-04-03T02:59:25.079Z,9.14
2019-04-03T03:00:22.031Z,9.04
2019-04-03T03:01:22.191Z,9.19
2019-04-03T03:02:21.915Z,9.06
2019-04-03T03:03:23.140Z,9.11
2019-04-03T03:04:25.530Z,9.04
2019-04-03T03:05:21.824Z,9.04
2019-04-03T03:06:22.181Z,9
2019-04-03T03:07:21.781Z,9
2019-04-03T03:08:25.610Z,9
2019-04-03T03:09:21.913Z,9.03
2019-04-03T03:10:24.750Z,8.99
2019-04-03T03:11:26.163Z,8.97
2019-04-03T03:12:21.637Z,9.02
2019-04-03T03:13:21.612Z,9
2019-04-03T03:14:21.724Z,8.89
2019-04-03T03:15:21.570Z,8.94
2019-04-03T03:16:23.550Z,8.89
2019-04-03T03:17:25.234Z,8.95
2019-04-03T03:18:21.841Z,8.85
2019-04-03T03:19:21.744Z,8.84
2019-04-03T03:20:21.433Z,8.89
2019-04-03T03:21:21.642Z,8.78
2019-04-03T03:22:23.572Z,8.76
2019-04-03T03:23:24.916Z,8.78
2019-04-03T03:24:21.331Z,8.78
2019-04-03T03:25:21.544Z,8.76
2019-04-03T03:26:21.290Z,8.81
2019-04-03T03:27:21.489Z,8.81
2019-04-03T03:28:21.007Z,8.82
2019-04-03T03:29:29.941Z,8.76
2019-04-03T03:31:01.909Z,8.81
2019-04-03T03:31:35.322Z,8.76
2019-04-03T03:32:38.856Z,8.79
2019-04-03T03:33:42.172Z,8.67
2019-04-03T03:35:11.487Z,8.73
2019-04-03T03:35:52.134Z,8.71
2019-04-03T03:36:44.623Z,8.64
2019-04-03T03:37:43.886Z,8.67
2019-04-03T03:38:45.370Z,8.64
2019-04-03T03:39:47.539Z,8.63
2019-04-03T03:40:47.049Z,8.61
2019-04-03T03:41:43.688Z,8.56
2019-04-03T03:42:43.822Z,8.74
2019-04-03T03:43:44.084Z,8.66
2019-04-03T03:44:49.404Z,8.66
2019-04-03T03:45:43.682Z,8.64
2019-04-03T03:46:43.292Z,8.69
2019-04-03T03:47:43.605Z,8.63
2019-04-03T03:48:48.214Z,8.66
2019-04-03T03:49:43.575Z,8.69
2019-04-03T03:50:43.669Z,8.66
2019-04-03T03:51:43.171Z,8.63
2019-04-03T03:52:44.214Z,8.7
2019-04-03T03:53:46.915Z,8.6
2019-04-03T03:54:43.489Z,8.64
2019-04-03T03:55:43.582Z,8.7
2019-04-03T03:56:43.060Z,8.58
2019-04-03T03:57:45.272Z,8.63
2019-04-03T03:58:47.196Z,8.56
2019-04-03T03:59:43.209Z,8.66
2019-04-03T04:00:43.577Z,8.58
2019-04-03T04:01:43.053Z,8.56
2019-04-03T04:02:47.813Z,8.53
2019-04-03T04:03:46.802Z,8.63
2019-04-03T04:04:46.476Z,8.64
2019-04-03T04:05:43.477Z,8.58
2019-04-03T04:06:43.004Z,8.63
2019-04-03T04:07:43.536Z,8.52
2019-04-03T04:08:46.471Z,8.52
2019-04-03T04:09:43.183Z,8.45
2019-04-03T04:10:42.728Z,8.53
2019-04-03T04:11:42.662Z,8.42
2019-04-03T04:12:46.387Z,8.44
2019-04-03T04:13:42.867Z,8.53
2019-04-03T04:14:43.109Z,8.55
2019-04-03T04:15:42.692Z,8.46
2019-04-03T04:16:43.187Z,8.55
2019-04-03T04:17:42.842Z,8.44
2019-04-03T04:18:42.739Z,8.52
2019-04-03T04:19:42.625Z,8.46
2019-04-03T04:20:43.627Z,8.45
2019-04-03T04:21:45.428Z,8.6
2019-04-03T04:22:42.423Z,8.45
2019-04-03T04:23:42.355Z,8.44
2019-04-03T04:24:42.314Z,8.52
2019-04-03T04:25:45.779Z,8.42
2019-04-03T04:26:42.276Z,8.51
2019-04-03T04:27:43.785Z,8.42
2019-04-03T04:28:44.429Z,8.41
2019-04-03T04:29:44.490Z,8.42
2019-04-03T04:30:44.793Z,8.42
2019-04-03T04:31:44.043Z,8.48
2019-04-03T04:32:42.528Z,8.44
2019-04-03T04:33:42.074Z,8.41
2019-04-03T04:34:42.052Z,8.41
2019-04-03T04:35:42.125Z,8.42
2019-04-03T04:36:42.279Z,8.44
2019-04-03T04:37:44.826Z,8.44
2019-04-03T04:38:42.160Z,8.45
2019-04-03T04:39:42.116Z,8.42
2019-04-03T04:40:41.897Z,8.45
2019-04-03T04:41:42.262Z,8.34
2019-04-03T04:42:42.062Z,8.31
2019-04-03T04:43:44.394Z,8.46
2019-04-03T04:44:43.621Z,8.42
2019-04-03T04:45:44.872Z,8.31
2019-04-03T04:46:43.538Z,8.41
2019-04-03T04:47:41.718Z,8.38
2019-04-03T04:48:41.690Z,8.38
2019-04-03T04:49:41.670Z,8.31
2019-04-03T04:50:41.992Z,8.3
2019-04-03T04:51:41.691Z,8.33
2019-04-03T04:52:41.582Z,8.33
2019-04-03T04:53:41.618Z,8.36
2019-04-03T04:54:42.851Z,8.34
2019-04-03T04:55:41.512Z,8.41
2019-04-03T04:56:43.145Z,8.36
2019-04-03T04:57:43.618Z,8.34
2019-04-03T04:58:42.918Z,8.38
2019-04-03T04:59:42.916Z,8.44
2019-04-03T05:00:41.592Z,8.42
2019-04-03T05:01:41.409Z,8.38
2019-04-03T05:02:41.428Z,8.41
2019-04-03T05:03:41.306Z,8.41
2019-04-03T05:04:41.564Z,8.38
2019-04-03T05:05:41.396Z,8.42
2019-04-03T05:06:41.220Z,8.44
2019-04-03T05:07:41.360Z,8.48
2019-04-03T05:08:41.542Z,8.44
2019-04-03T05:09:41.312Z,8.38
2019-04-03T05:10:41.960Z,8.36
2019-04-03T05:11:43.450Z,8.33
2019-04-03T05:12:45.272Z,8.38
2019-04-03T05:13:41.186Z,8.42
2019-04-03T05:14:41.310Z,8.49
2019-04-03T05:15:40.992Z,8.37
2019-04-03T05:16:41.173Z,8.38
2019-04-03T05:17:40.937Z,8.42
2019-04-03T05:18:41.377Z,8.44
2019-04-03T05:19:40.885Z,8.42
2019-04-03T05:20:41.028Z,8.41
2019-04-03T05:21:41.028Z,8.41
2019-04-03T05:22:41.010Z,8.44
2019-04-03T05:23:40.787Z,8.41
2019-04-03T05:24:40.903Z,8.37
2019-04-03T05:25:40.741Z,8.44
2019-04-03T05:26:41.064Z,8.46
2019-04-03T05:27:40.720Z,8.38
2019-04-03T05:28:53.090Z,8.48
2019-04-03T05:29:40.739Z,8.45
2019-04-03T05:30:42.534Z,8.46
2019-04-03T05:31:43.293Z,8.42
2019-04-03T05:32:43.235Z,8.38
2019-04-03T05:33:43.982Z,8.41
2019-04-03T05:34:43.411Z,8.41
2019-04-03T05:35:42.370Z,8.42
2019-04-03T05:36:40.464Z,8.42
2019-04-03T05:37:40.464Z,8.46
2019-04-03T05:38:42.931Z,8.45
2019-04-03T05:39:40.502Z,8.45
2019-04-03T05:40:40.346Z,8.49
2019-04-03T05:41:40.320Z,8.6
2019-04-03T05:42:40.483Z,8.42
2019-04-03T05:43:40.397Z,8.42
2019-04-03T05:44:40.340Z,8.41
2019-04-03T05:45:43.367Z,8.48
2019-04-03T05:46:42.345Z,8.49
2019-04-03T05:47:43.791Z,8.46
2019-04-03T05:48:40.262Z,8.38
2019-04-03T05:49:40.108Z,8.31
2019-04-03T05:50:41.402Z,8.41
2019-04-03T05:51:40.203Z,8.37
2019-04-03T05:52:40.686Z,8.42
2019-04-03T05:53:42.487Z,8.31
2019-04-03T05:54:46.860Z,8.33
2019-04-03T05:55:42.975Z,8.31
2019-04-03T05:56:42.191Z,8.36
2019-04-03T05:57:39.902Z,8.3
2019-04-03T05:58:39.970Z,8.34
2019-04-03T05:59:40.244Z,8.3
2019-04-03T06:00:42.733Z,8.3
2019-04-03T06:01:41.601Z,8.28
2019-04-03T06:02:39.893Z,8.27
2019-04-03T06:03:48.806Z,8.31
2019-04-03T06:04:42.941Z,8.31
2019-04-03T06:05:39.700Z,8.19
2019-04-03T06:06:39.710Z,8.24
2019-04-03T06:07:40.011Z,8.2
2019-04-03T06:08:40.159Z,8.28
2019-04-03T06:09:39.833Z,8.26
2019-04-03T06:10:42.261Z,8.2
2019-04-03T06:11:42.920Z,8.19
2019-04-03T06:12:44.557Z,8.2
2019-04-03T06:13:39.676Z,8.31
2019-04-03T06:14:39.466Z,8.27
2019-04-03T06:15:39.731Z,8.26
2019-04-03T06:16:39.409Z,8.3
2019-04-03T06:17:39.397Z,8.3
2019-04-03T06:18:39.367Z,8.36
2019-04-03T06:19:42.279Z,8.19
2019-04-03T06:20:39.305Z,8.2
2019-04-03T06:21:39.484Z,8.26
2019-04-03T06:22:39.355Z,8.26
2019-04-03T06:23:39.231Z,8.28
2019-04-03T06:24:39.406Z,8.24
2019-04-03T06:25:39.544Z,8.19
2019-04-03T06:26:44.076Z,8.18
2019-04-03T06:27:41.164Z,8.15
2019-04-03T06:28:39.222Z,8.18
2019-04-03T06:29:39.310Z,8.19
2019-04-03T06:30:39.052Z,8.05
2019-04-03T06:31:39.022Z,8.18
2019-04-03T06:32:39.020Z,8.19
2019-04-03T06:33:41.383Z,8.13
2019-04-03T06:34:43.180Z,8.24
2019-04-03T06:35:40.175Z,8.2
2019-04-03T06:36:38.969Z,8.27
2019-04-03T06:37:39.350Z,8.3
2019-04-03T06:38:39.088Z,8.36
2019-04-03T06:39:39.152Z,8.34
2019-04-03T06:40:42.143Z,8.27
2019-04-03T06:41:41.455Z,8.27
2019-04-03T06:42:39.055Z,8.24
2019-04-03T06:43:38.909Z,8.19
2019-04-03T06:44:38.699Z,8.24
2019-04-03T06:45:38.929Z,8.16
2019-04-03T06:46:39.007Z,8.19
2019-04-03T06:47:38.611Z,8.2
2019-04-03T06:48:41.020Z,8.16
2019-04-03T06:49:40.233Z,8.19
2019-04-03T06:50:38.535Z,8.19
2019-04-03T06:51:38.544Z,8.09
2019-04-03T06:52:38.527Z,8.2
2019-04-03T06:53:38.460Z,8.05
2019-04-03T06:54:38.739Z,8.12
2019-04-03T06:55:40.678Z,8.1
2019-04-03T06:56:40.494Z,8.06
2019-04-03T06:57:41.400Z,8.1
2019-04-03T06:58:47.053Z,8.08
2019-04-03T06:59:38.492Z,8.12
2019-04-03T07:00:38.039Z,8.08
2019-04-03T07:01:38.029Z,8.08
2019-04-03T07:02:38.221Z,8.05
2019-04-03T07:03:39.628Z,7.97
2019-04-03T07:04:40.238Z,8.08
2019-04-03T07:05:39.265Z,8.05
2019-04-03T07:06:38.115Z,8.05
2019-04-03T07:07:40.211Z,8.05
2019-04-03T07:08:43.327Z,8.08
2019-04-03T07:09:41.402Z,8.12
2019-04-03T07:10:54.566Z,7.98
2019-04-03T07:11:38.220Z,8.06
2019-04-03T07:12:39.110Z,8
2019-04-03T07:13:38.591Z,8.05
2019-04-03T07:14:38.330Z,8.09
2019-04-03T07:15:38.468Z,8
2019-04-03T07:16:41.202Z,8
2019-04-03T07:17:37.835Z,7.93
2019-04-03T07:18:39.648Z,7.97
2019-04-03T07:19:39.749Z,8.01
2019-04-03T07:20:37.755Z,7.88
2019-04-03T07:21:37.867Z,7.94
2019-04-03T07:22:37.706Z,7.97
2019-04-03T07:23:37.674Z,7.95
2019-04-03T07:24:37.650Z,7.9
2019-04-03T07:25:39.092Z,7.95
2019-04-03T07:26:40.171Z,7.9
2019-04-03T07:27:41.701Z,7.87
2019-04-03T07:28:40.559Z,7.72
2019-04-03T07:29:37.567Z,7.8
2019-04-03T07:30:37.740Z,7.76
2019-04-03T07:31:37.468Z,7.85
2019-04-03T07:32:37.444Z,7.75
2019-04-03T07:33:37.535Z,7.76
2019-04-03T07:34:39.270Z,7.76
2019-04-03T07:35:39.077Z,7.75
2019-04-03T07:36:37.561Z,7.75
2019-04-03T07:37:37.446Z,7.77
2019-04-03T07:38:37.290Z,7.7
2019-04-03T07:39:37.403Z,7.75
2019-04-03T07:40:37.229Z,7.8
2019-04-03T07:41:40.351Z,7.76
2019-04-03T07:42:36.945Z,7.82
2019-04-03T07:43:37.258Z,7.88
2019-04-03T07:44:37.603Z,7.8
2019-04-03T07:45:38.046Z,7.82
2019-04-03T07:46:38.579Z,7.83
2019-04-03T07:47:39.473Z,7.9
2019-04-03T07:48:40.806Z,7.93
2019-04-03T07:49:37.661Z,7.85
2019-04-03T07:50:39.692Z,7.73
2019-04-03T07:51:36.949Z,7.63
2019-04-03T07:52:37.183Z,7.56
2019-04-03T07:53:37.195Z,7.51
2019-04-03T07:54:37.225Z,7.45
2019-04-03T07:55:37.111Z,7.4
2019-04-03T07:56:37.017Z,7.48
2019-04-03T07:57:37.286Z,7.53
2019-04-03T07:58:37.621Z,7.43
2019-04-03T07:59:38.511Z,7.45
2019-04-03T08:00:38.466Z,7.43
2019-04-03T08:01:36.956Z,7.35
2019-04-03T08:02:39.150Z,7.39
2019-04-03T08:03:36.629Z,7.47
2019-04-03T08:04:36.609Z,7.53
2019-04-03T08:05:36.852Z,7.43
2019-04-03T08:06:39.395Z,7.48
2019-04-03T08:07:36.530Z,7.47
2019-04-03T08:08:36.499Z,7.39
2019-04-03T08:09:36.508Z,7.33
2019-04-03T08:10:40.079Z,7.43
2019-04-03T08:11:39.669Z,7.4
2019-04-03T08:12:40.033Z,7.4
2019-04-03T08:13:40.326Z,7.36
2019-04-03T08:14:36.406Z,7.39
2019-04-03T08:15:36.575Z,7.28
2019-04-03T08:16:37.141Z,7.28
2019-04-03T08:17:36.271Z,7.36
2019-04-03T08:18:36.256Z,7.36
2019-04-03T08:19:35.985Z,7.31
2019-04-03T08:20:36.152Z,7.33
2019-04-03T08:21:36.810Z,7.33
2019-04-03T08:22:38.697Z,7.33
2019-04-03T08:23:38.899Z,7.36
2019-04-03T08:24:36.194Z,7.31
2019-04-03T08:25:36.061Z,7.31
2019-04-03T08:26:36.246Z,7.33
2019-04-03T08:27:36.077Z,7.33
2019-04-03T08:28:35.988Z,7.31
2019-04-03T08:29:40.976Z,7.25
2019-04-03T08:30:36.970Z,7.29
2019-04-03T08:31:36.210Z,7.32
2019-04-03T08:32:35.878Z,7.25
2019-04-03T08:33:38.210Z,7.35
2019-04-03T08:34:36.875Z,7.32
2019-04-03T08:35:39.566Z,7.4
2019-04-03T08:36:38.277Z,7.45
2019-04-03T08:37:40.483Z,7.38
2019-04-03T08:38:35.933Z,7.4
2019-04-03T08:39:35.766Z,7.36
2019-04-03T08:40:35.940Z,7.35
2019-04-03T08:41:38.954Z,7.48
2019-04-03T08:42:37.663Z,7.45
2019-04-03T08:43:37.370Z,7.51
2019-04-03T08:44:37.932Z,7.5
2019-04-03T08:45:37.576Z,7.58
2019-04-03T08:46:35.515Z,7.63
2019-04-03T08:47:37.413Z,7.61
2019-04-03T08:48:35.467Z,7.79
2019-04-03T08:49:35.439Z,7.83
2019-04-03T08:50:35.989Z,7.94
2019-04-03T08:51:38.801Z,8.03
2019-04-03T08:52:37.062Z,8.05
2019-04-03T08:53:38.315Z,8.19
2019-04-03T08:54:35.473Z,8.16
2019-04-03T08:55:35.403Z,8.28
2019-04-03T08:56:35.379Z,8.34
2019-04-03T08:57:35.330Z,8.42
2019-04-03T08:58:35.209Z,8.38
2019-04-03T08:59:35.275Z,8.38
2019-04-03T09:00:37.370Z,8.42
2019-04-03T09:01:38.448Z,8.44
2019-04-03T09:02:35.565Z,8.38
2019-04-03T09:03:35.369Z,8.42
2019-04-03T09:04:35.074Z,8.44
2019-04-03T09:05:35.351Z,8.42
2019-04-03T09:06:35.112Z,8.58
2019-04-03T09:07:34.995Z,8.52
2019-04-03T09:08:34.961Z,8.53
2019-04-03T09:09:37.474Z,8.66
2019-04-03T09:10:39.890Z,8.67
2019-04-03T09:11:38.311Z,8.76
2019-04-03T09:12:37.349Z,8.76
2019-04-03T09:13:34.983Z,8.89
2019-04-03T09:14:35.079Z,8.99
2019-04-03T09:15:35.052Z,9.04
2019-04-03T09:16:36.133Z,9.02
2019-04-03T09:17:36.987Z,9.16
2019-04-03T09:18:37.381Z,9.18
2019-04-03T09:19:35.079Z,9.21
2019-04-03T09:20:37.889Z,9.21
2019-04-03T09:21:34.707Z,9.39
2019-04-03T09:22:34.631Z,9.65
2019-04-03T09:23:34.606Z,9.68
2019-04-03T09:24:35.253Z,9.8
2019-04-03T09:25:36.931Z,9.89
2019-04-03T09:26:39.938Z,9.94
2019-04-03T09:27:34.751Z,9.89
2019-04-03T09:28:34.490Z,10.02
2019-04-03T09:29:34.465Z,10.02
2019-04-03T09:30:34.726Z,10.01
2019-04-03T09:31:34.484Z,10.12
2019-04-03T09:32:36.809Z,10.13
2019-04-03T09:33:35.091Z,10.07
2019-04-03T09:34:38.319Z,9.99
2019-04-03T09:35:36.937Z,10.04
2019-04-03T09:36:37.005Z,9.91
2019-04-03T09:37:36.663Z,9.95
2019-04-03T09:38:35.925Z,9.89
2019-04-03T09:39:34.247Z,9.86
2019-04-03T09:40:34.225Z,9.87
2019-04-03T09:41:34.290Z,9.91
2019-04-03T09:42:34.179Z,9.79
2019-04-03T09:43:34.368Z,9.86
2019-04-03T09:44:34.287Z,9.91
2019-04-03T09:45:34.510Z,9.89
2019-04-03T09:46:36.632Z,9.86
2019-04-03T09:47:37.400Z,9.77
2019-04-03T09:48:34.822Z,9.76
2019-04-03T09:49:34.028Z,9.82
2019-04-03T09:50:34.002Z,9.72
2019-04-03T09:51:33.981Z,9.64
2019-04-03T09:52:53.983Z,9.56
2019-04-03T09:53:34.399Z,9.58
2019-04-03T09:54:34.336Z,9.55
2019-04-03T09:55:40.644Z,9.48
2019-04-03T09:56:36.688Z,9.46
2019-04-03T09:57:36.592Z,9.4
2019-04-03T09:58:37.058Z,9.32
2019-04-03T09:59:34.149Z,9.47
2019-04-03T10:00:34.151Z,9.46
2019-04-03T10:01:33.962Z,9.54
2019-04-03T10:02:33.737Z,9.48
2019-04-03T10:03:36.209Z,9.54
2019-04-03T10:04:33.689Z,9.48
2019-04-03T10:05:34.454Z,9.48
2019-04-03T10:06:36.305Z,9.56
2019-04-03T10:07:39.329Z,9.58
2019-04-03T10:08:34.132Z,9.62
2019-04-03T10:09:33.588Z,9.61
2019-04-03T10:10:33.856Z,9.62
2019-04-03T10:11:33.747Z,9.61
2019-04-03T10:12:36.966Z,9.68
2019-04-03T10:13:34.156Z,9.66
2019-04-03T10:14:34.091Z,9.72
2019-04-03T10:15:36.026Z,9.65
2019-04-03T10:16:35.521Z,9.76
2019-04-03T10:17:33.506Z,9.73
2019-04-03T10:18:33.370Z,9.82
2019-04-03T10:19:33.722Z,9.77
2019-04-03T10:20:33.336Z,9.66
2019-04-03T10:21:36.437Z,9.62
2019-04-03T10:22:33.454Z,9.65
2019-04-03T10:23:33.960Z,9.58
2019-04-03T10:24:35.698Z,9.69
2019-04-03T10:25:34.783Z,9.64
2019-04-03T10:26:39.194Z,9.69
2019-04-03T10:27:33.155Z,9.62
2019-04-03T10:28:33.382Z,9.69
2019-04-03T10:29:33.299Z,9.64
2019-04-03T10:30:33.101Z,9.62
2019-04-03T10:31:33.064Z,9.68
2019-04-03T10:32:33.648Z,9.68
2019-04-03T10:33:35.592Z,9.69
2019-04-03T10:34:33.252Z,9.65
2019-04-03T10:35:33.149Z,9.69
2019-04-03T10:36:33.306Z,9.77
2019-04-03T10:37:32.928Z,9.76
2019-04-03T10:38:33.201Z,9.73
2019-04-03T10:39:32.881Z,9.73
2019-04-03T10:40:33.111Z,9.82
2019-04-03T10:41:33.881Z,9.86
2019-04-03T10:42:35.231Z,9.84
2019-04-03T10:43:33.191Z,9.91
2019-04-03T10:44:33.179Z,9.97
2019-04-03T10:45:32.745Z,9.95
2019-04-03T10:46:32.949Z,9.98
2019-04-03T10:47:47.250Z,9.94
2019-04-03T10:48:33.478Z,9.95
2019-04-03T10:49:36.057Z,9.95
2019-04-03T10:50:32.663Z,10.01
2019-04-03T10:51:36.244Z,10.02
2019-04-03T10:52:32.789Z,10.04
2019-04-03T10:53:32.566Z,10.01
2019-04-03T10:54:32.882Z,10.05
2019-04-03T10:55:34.116Z,10.31
2019-04-03T10:56:35.680Z,10.34
2019-04-03T10:57:35.778Z,10.33
2019-04-03T10:58:32.665Z,10.42
2019-04-03T10:59:32.687Z,10.4
2019-04-03T11:00:34.045Z,10.54
2019-04-03T11:01:32.407Z,10.69
2019-04-03T11:02:32.364Z,10.71
2019-04-03T11:03:32.340Z,10.89
2019-04-03T11:04:32.319Z,11
2019-04-03T11:05:32.604Z,10.99
2019-04-03T11:06:32.513Z,11.12
2019-04-03T11:07:32.520Z,11.14
2019-04-03T11:08:32.654Z,10.99
2019-04-03T11:09:32.572Z,11.08
2019-04-03T11:10:32.339Z,11.15
2019-04-03T11:11:36.881Z,11.15
2019-04-03T11:12:34.457Z,11.19
2019-04-03T11:13:34.255Z,11.3
2019-04-03T11:14:32.111Z,11.36
2019-04-03T11:15:32.111Z,11.47
2019-04-03T11:16:32.211Z,11.44
2019-04-03T11:17:32.052Z,11.45
2019-04-03T11:18:32.454Z,11.48
2019-04-03T11:19:32.370Z,11.41
2019-04-03T11:20:32.037Z,11.47
2019-04-03T11:21:32.300Z,11.4
2019-04-03T11:22:45.871Z,11.43
2019-04-03T11:23:47.998Z,11.36
2019-04-03T11:24:31.948Z,11.32
2019-04-03T11:25:31.738Z,11.29
2019-04-03T11:26:32.437Z,11.22
2019-04-03T11:27:48.510Z,11.19
2019-04-03T11:28:31.940Z,11.29
2019-04-03T11:29:31.994Z,11.48
2019-04-03T11:30:32.245Z,11.44
2019-04-03T11:31:42.067Z,11.59
2019-04-03T11:32:32.020Z,11.65
2019-04-03T11:33:32.079Z,11.51
2019-04-03T11:34:31.771Z,11.52
2019-04-03T11:35:31.832Z,11.59
2019-04-03T11:36:35.284Z,11.63
2019-04-03T11:37:35.121Z,11.77
2019-04-03T11:38:33.909Z,11.84
2019-04-03T11:39:31.620Z,11.84
2019-04-03T11:40:31.629Z,12.07
2019-04-03T11:41:31.694Z,12.13
2019-04-03T11:42:35.688Z,12.2
2019-04-03T11:43:33.904Z,12.27
2019-04-03T11:44:31.516Z,12.27
2019-04-03T11:45:31.812Z,12.2
2019-04-03T11:46:31.475Z,12.15
2019-04-03T11:47:31.573Z,12.28
2019-04-03T11:48:32.421Z,12.4
2019-04-03T11:49:31.489Z,12.57
2019-04-03T11:50:31.399Z,12.8
2019-04-03T11:51:36.600Z,13.04
2019-04-03T11:52:31.362Z,13.16
2019-04-03T11:53:32.982Z,13.41
2019-04-03T11:54:31.328Z,13.28
2019-04-03T11:55:31.585Z,13.2
2019-04-03T11:56:31.287Z,13.03
2019-04-03T11:57:32.136Z,12.87
2019-04-03T11:58:31.388Z,12.94
2019-04-03T11:59:31.584Z,13
2019-04-03T12:00:31.295Z,13
2019-04-03T12:01:31.292Z,13.12
2019-04-03T12:02:31.199Z,13.13
2019-04-03T12:03:31.517Z,13.31
2019-04-03T12:04:31.461Z,13.38
2019-04-03T12:05:31.446Z,13.5
2019-04-03T12:06:31.214Z,13.47
2019-04-03T12:07:31.088Z,13.53
2019-04-03T12:08:33.949Z,13.52
2019-04-03T12:09:33.818Z,13.52
2019-04-03T12:10:32.765Z,13.54
2019-04-03T12:11:31.018Z,13.62
2019-04-03T12:12:31.016Z,13.78
2019-04-03T12:13:31.031Z,13.78
2019-04-03T12:14:31.230Z,13.89
2019-04-03T12:15:33.622Z,13.99
2019-04-03T12:16:31.395Z,14.04
2019-04-03T12:17:33.725Z,14.12
2019-04-03T12:18:32.584Z,14.2
2019-04-03T12:19:30.878Z,14.05
2019-04-03T12:20:30.891Z,14.04
2019-04-03T12:21:31.161Z,14.15
2019-04-03T12:22:30.986Z,14.18
2019-04-03T12:23:32.525Z,14.25
2019-04-03T12:24:30.893Z,14.22
2019-04-03T12:25:33.712Z,14.25
2019-04-03T12:26:31.161Z,14.2
2019-04-03T12:27:30.996Z,14.15
2019-04-03T12:28:30.953Z,14.12
2019-04-03T12:29:31.209Z,13.97
2019-04-03T12:30:32.746Z,13.81
2019-04-03T12:31:30.676Z,13.62
2019-04-03T12:32:49.916Z,13.52
2019-04-03T12:33:30.634Z,13.35
2019-04-03T12:34:30.596Z,13.39
2019-04-03T12:35:30.895Z,13.39
2019-04-03T12:36:32.626Z,13.44
2019-04-03T12:37:30.906Z,13.5
2019-04-03T12:38:30.868Z,13.49
2019-04-03T12:39:32.128Z,13.5
2019-04-03T12:40:34.608Z,13.56
2019-04-03T12:41:33.858Z,13.56
2019-04-03T12:42:30.494Z,13.63
2019-04-03T12:43:30.695Z,13.56
2019-04-03T12:44:31.534Z,13.28
2019-04-03T12:45:32.450Z,13.22
2019-04-03T12:46:32.583Z,13.19
2019-04-03T12:47:32.752Z,13.19
2019-04-03T12:48:32.820Z,13.23
2019-04-03T12:49:30.438Z,13.31
2019-04-03T12:50:32.733Z,13.41
2019-04-03T12:51:33.637Z,13.38
2019-04-03T12:52:30.301Z,13.5
2019-04-03T12:53:30.636Z,13.52
2019-04-03T12:54:30.704Z,13.74
2019-04-03T12:55:31.576Z,13.79
2019-04-03T12:56:33.456Z,13.75
2019-04-03T12:57:32.107Z,13.75
2019-04-03T12:58:31.550Z,13.79
2019-04-03T12:59:31.442Z,13.87
2019-04-03T13:00:30.756Z,13.89
2019-04-03T13:01:30.241Z,13.97
2019-04-03T13:02:30.529Z,14.03
2019-04-03T13:03:31.099Z,14
2019-04-03T13:04:34.811Z,13.83
2019-04-03T13:05:30.074Z,13.87
2019-04-03T13:06:30.416Z,13.9
2019-04-03T13:07:30.044Z,13.92
2019-04-03T13:08:30.022Z,13.95
2019-04-03T13:09:30.096Z,13.89
2019-04-03T13:10:47.404Z,13.96
2019-04-03T13:11:32.780Z,13.95
2019-04-03T13:12:32.551Z,13.9
2019-04-03T13:13:32.746Z,13.93
2019-04-03T13:14:35.446Z,13.86